Cranberry Lake, NY (12927)

4:47 PM EST on March 01, 2015 (GMT -0500)
RAWS WANAKENA NY US | Change Station
CLOSE
Current Station
Personal Weather Station
Location: Newton Falls, NY
Elevation: 1500 ft
Nearby Weather Stations

Elev 1500 ft 44.17 °N, 74.90 °W | Updated 46 minutes ago

Snow
Snow
24 °F
Feels Like 24 °F
N
3
Wind Variable Wind from WNW
Gusts 10.0 mph

Today
High -- | Low -- °F
--% Chance of Precip.
Yesterday
High -- | Low -- °F
Precip. -- in
6:36 AM 5:47 PM
Waxing Gibbous, 87% visible
Pressure 30.10 in
Visibility 3.0 miles
Clouds Overcast 2300 ft
Windchill 24 °F
Dew Point 16 °F
Humidity 71%
Rainfall 0.03 in
Snow Depth Not available.
UV 0 out of 12
Pollen .40 out of 12
Air Quality Not available.
Flu Activity Not available.
SPECI KSLK 012142Z AUTO 21009KT 3SM -SN OVC023 M05/M08 A3010 RMK AO2 P0000 T10501078 $

More Conditions Fewer Conditions

Pressure 30.10 in
Visibility 3.0 miles
Clouds Overcast 2300 ft
Windchill 24 °F
Dew Point 16 °F
Humidity 71%
Rainfall 0.03 in
Snow Depth Not available.
UV 0 out of 12
Pollen .40 out of 12
Air Quality Not available.
Flu Activity Not available.
SPECI KSLK 012142Z AUTO 21009KT 3SM -SN OVC023 M05/M08 A3010 RMK AO2 P0000 T10501078 $

More Conditions Fewer Conditions

10-Day Weather Forecast

Almanac

Astronomy

Mar. 01, 2015 Rise Set
Actual Time
Civil Twilight
Nautical Twilight
Astronomical Twilight
Moon
Length of Visible Light
Length of Day
Tomorrow will be .
, % of the Moon is Illuminated

Today's Extremes

State Highs State Lows

Community

WunderPhotos

Upload Photos

1,801,577 photos uploaded!

WunderBlogs® & News

Nearby

Air Quality

  Air Quality AQ Index Pollutant
Not available.

Snow Depth

Station Depth Elevation

Earthquake Activity

City Distance Mag. Time & Date
Minimum magnitude displayed is 2.5.

Coastal Water Temperatures

Place Temperature

Nearby Weather Stations